Time;durP1;ratioP1;P1;durP2;ratioP2;P2;SDS_P1;SDS_P2;PMS_P1;PMS_P2;Temp;Humidity;BMP_temperature;BMP_pressure;BME280_temperature;BME280_humidity;BME280_pressure;Samples;Min_cycle;Max_cycle;Signal;HPM_P1;HPM_P2
2022/10/10 03:00:20;;;;;;;0.50;0.47;;;19.20;49.10;;;;;;5939718;23;46043;-62
2022/10/10 03:02:45;;;;;;;0.70;0.70;;;19.20;49.10;;;;;;4866396;28;45984;-62
2022/10/10 03:05:12;;;;;;;0.50;0.40;;;19.20;49.10;;;;;;4884415;28;44945;-63
2022/10/10 03:07:37;;;;;;;0.47;0.47;;;19.20;49.10;;;;;;4897933;28;45411;-61
2022/10/10 03:10:06;;;;;;;0.63;0.60;;;19.20;49.10;;;;;;4898813;28;46813;-62
2022/10/10 03:12:32;;;;;;;0.50;0.50;;;19.20;49.00;;;;;;4883492;28;44981;-62
2022/10/10 03:14:58;;;;;;;0.85;0.63;;;19.20;49.10;;;;;;4909295;28;45563;-63
2022/10/10 03:17:23;;;;;;;1.15;0.70;;;19.20;49.10;;;;;;4911033;28;46421;-63
2022/10/10 03:19:49;;;;;;;0.85;0.63;;;19.20;49.10;;;;;;4914037;28;45909;-64
2022/10/10 03:22:14;;;;;;;0.70;0.60;;;19.20;49.10;;;;;;4907450;28;45373;-62
2022/10/10 03:24:40;;;;;;;0.60;0.50;;;19.20;49.10;;;;;;4912487;28;45169;-63
2022/10/10 03:27:06;;;;;;;0.70;0.70;;;19.20;49.10;;;;;;4909925;28;44798;-63
2022/10/10 03:29:31;;;;;;;1.20;0.93;;;19.20;49.10;;;;;;4911558;28;45415;-62
2022/10/10 03:31:57;;;;;;;0.68;0.63;;;19.20;49.10;;;;;;4910782;28;44733;-63
2022/10/10 03:34:23;;;;;;;0.70;0.70;;;19.20;49.10;;;;;;4913359;28;44969;-62
2022/10/10 03:36:48;;;;;;;0.85;0.60;;;19.20;49.10;;;;;;4908754;28;45358;-63
2022/10/10 03:39:14;;;;;;;2.03;0.60;;;19.20;49.10;;;;;;4888656;28;46452;-62
2022/10/10 03:41:40;;;;;;;0.63;0.60;;;19.20;49.10;;;;;;4909285;28;45347;-63
2022/10/10 03:44:05;;;;;;;0.60;0.55;;;19.20;49.70;;;;;;4893782;28;45553;-63
2022/10/10 03:46:31;;;;;;;0.90;0.60;;;19.20;49.10;;;;;;4898530;28;45386;-63
2022/10/10 03:48:56;;;;;;;0.85;0.60;;;19.20;49.20;;;;;;4891501;28;45928;-63
2022/10/10 03:51:22;;;;;;;0.90;0.77;;;19.20;49.10;;;;;;4906907;28;45310;-63
2022/10/10 03:53:47;;;;;;;1.00;0.70;;;19.10;49.10;;;;;;4912741;28;45467;-61
2022/10/10 03:56:13;;;;;;;0.95;0.82;;;19.10;49.10;;;;;;4889554;28;45493;-63
2022/10/10 03:58:38;;;;;;;1.42;0.68;;;19.10;49.00;;;;;;4913248;28;46028;-63
2022/10/10 04:01:04;;;;;;;0.93;0.60;;;19.10;49.10;;;;;;4905541;28;45744;-63
2022/10/10 04:03:30;;;;;;;0.98;0.55;;;19.20;49.10;;;;;;4894500;28;46090;-62
2022/10/10 04:05:55;;;;;;;0.70;0.70;;;19.10;49.00;;;;;;4910954;28;45479;-63
2022/10/10 04:08:21;;;;;;;0.65;0.60;;;19.10;49.10;;;;;;4889035;28;45639;-62
2022/10/10 04:10:51;;;;;;;0.95;0.65;;;19.10;49.10;;;;;;4907660;28;44706;-63
2022/10/10 04:13:17;;;;;;;0.60;0.60;;;19.10;49.10;;;;;;4912515;28;45259;-64
2022/10/10 04:15:42;;;;;;;0.63;0.50;;;19.10;49.00;;;;;;4913009;28;45635;-64
2022/10/10 04:18:08;;;;;;;0.88;0.75;;;19.10;49.00;;;;;;4908882;28;45939;-63
2022/10/10 04:20:33;;;;;;;0.65;0.60;;;19.10;49.00;;;;;;4907826;28;45328;-61
2022/10/10 04:22:59;;;;;;;1.25;0.70;;;19.10;49.00;;;;;;4917523;28;45604;-62
2022/10/10 04:25:25;;;;;;;1.02;0.80;;;19.10;49.00;;;;;;4910493;28;45238;-63
2022/10/10 04:27:50;;;;;;;0.85;0.70;;;19.10;49.00;;;;;;4892793;28;45716;-62
2022/10/10 04:30:16;;;;;;;0.95;0.70;;;19.10;49.00;;;;;;4915672;28;45296;-63
2022/10/10 04:32:42;;;;;;;0.88;0.57;;;19.10;49.10;;;;;;4912395;28;44716;-63
2022/10/10 04:35:07;;;;;;;0.40;0.40;;;19.10;49.10;;;;;;4909977;28;44782;-63
2022/10/10 04:37:33;;;;;;;0.90;0.80;;;19.10;49.10;;;;;;4907977;28;47097;-62
2022/10/10 04:39:59;;;;;;;1.13;0.77;;;19.10;49.10;;;;;;4913548;28;45526;-63
2022/10/10 04:42:25;;;;;;;1.63;0.70;;;19.10;49.10;;;;;;4912108;28;45261;-63
2022/10/10 04:44:50;;;;;;;0.60;0.55;;;19.10;49.10;;;;;;4897167;28;45666;-63
2022/10/10 04:47:16;;;;;;;0.73;0.50;;;19.10;49.10;;;;;;4909835;28;46756;-62
2022/10/10 04:49:41;;;;;;;0.63;0.60;;;19.10;49.10;;;;;;4898572;28;44933;-63
2022/10/10 04:52:08;;;;;;;0.70;0.50;;;19.10;49.10;;;;;;4913443;28;45664;-63
2022/10/10 04:54:34;;;;;;;0.75;0.50;;;19.10;49.10;;;;;;4914055;28;45509;-63
2022/10/10 04:56:59;;;;;;;0.73;0.68;;;19.10;49.10;;;;;;4915714;28;45913;-63
2022/10/10 04:59:25;;;;;;;0.63;0.50;;;19.10;49.10;;;;;;4911909;28;45507;-63
2022/10/10 05:01:50;;;;;;;0.65;0.55;;;19.10;49.10;;;;;;4907592;28;45723;-63
2022/10/10 05:04:16;;;;;;;0.70;0.60;;;19.10;49.10;;;;;;4911592;28;44674;-63
2022/10/10 05:06:41;;;;;;;0.60;0.60;;;19.10;49.10;;;;;;4913768;28;45783;-64
2022/10/10 05:09:07;;;;;;;1.13;0.80;;;19.10;49.10;;;;;;4913613;28;45485;-63
2022/10/10 05:11:33;;;;;;;1.13;0.63;;;19.00;49.10;;;;;;4895682;28;45278;-63
2022/10/10 05:13:58;;;;;;;1.40;0.80;;;19.00;49.10;;;;;;4897215;28;45222;-62
2022/10/10 05:16:24;;;;;;;0.80;0.65;;;19.00;49.10;;;;;;4893418;28;47035;-63
2022/10/10 05:18:49;;;;;;;1.17;0.60;;;19.00;49.10;;;;;;4911081;28;45458;-62
2022/10/10 05:21:15;;;;;;;0.60;0.60;;;19.10;49.20;;;;;;4912153;28;45400;-63
2022/10/10 05:23:40;;;;;;;0.57;0.57;;;19.00;49.10;;;;;;4896274;28;45209;-63
2022/10/10 05:26:06;;;;;;;1.08;0.70;;;19.00;49.10;;;;;;4911688;28;46098;-62
2022/10/10 05:28:34;;;;;;;0.55;0.55;;;19.00;49.10;;;;;;4908800;28;45419;-63
2022/10/10 05:30:59;;;;;;;1.08;0.68;;;19.00;49.10;;;;;;4894316;28;45777;-63
2022/10/10 05:33:25;;;;;;;1.25;0.70;;;19.00;49.10;;;;;;4916440;28;45300;-63
2022/10/10 05:35:50;;;;;;;1.48;0.80;;;19.10;49.10;;;;;;4915252;28;45896;-63
2022/10/10 05:38:16;;;;;;;0.98;0.80;;;19.00;49.10;;;;;;4892065;28;44662;-62
2022/10/10 05:40:41;;;;;;;0.80;0.60;;;19.00;49.10;;;;;;4900212;28;46144;-62
2022/10/10 05:43:07;;;;;;;1.85;0.70;;;19.00;49.10;;;;;;4912302;28;45262;-63
2022/10/10 05:45:32;;;;;;;2.15;0.68;;;19.00;49.10;;;;;;4911032;28;45650;-62
2022/10/10 05:47:58;;;;;;;1.33;0.70;;;19.00;49.10;;;;;;4906997;28;44589;-63
2022/10/10 05:50:32;;;;;;;0.80;0.68;;;19.00;49.20;;;;;;4910061;28;45382;-63
2022/10/10 05:52:58;;;;;;;0.77;0.52;;;19.00;49.10;;;;;;4879021;28;45321;-63
2022/10/10 05:55:23;;;;;;;0.80;0.70;;;19.00;49.80;;;;;;4911292;28;45124;-63
2022/10/10 05:57:49;;;;;;;0.75;0.73;;;19.00;49.20;;;;;;4892291;28;45477;-63
2022/10/10 06:00:14;;;;;;;0.90;0.63;;;19.00;49.20;;;;;;4896140;28;45220;-62
2022/10/10 06:02:40;;;;;;;1.67;1.10;;;19.00;49.20;;;;;;4918087;28;45694;-64
2022/10/10 06:05:06;;;;;;;2.33;1.40;;;19.00;48.70;;;;;;4905281;28;45550;-63
2022/10/10 06:07:32;;;;;;;8.70;2.22;;;18.90;47.80;;;;;;4899770;28;44927;-62
2022/10/10 06:09:57;;;;;;;8.70;2.33;;;18.80;47.40;;;;;;4921134;28;45407;-62
2022/10/10 06:12:23;;;;;;;4.65;2.30;;;18.70;47.20;;;;;;4872781;28;45563;-63
2022/10/10 06:14:48;;;;;;;7.63;2.58;;;18.60;47.20;;;;;;4918872;28;45867;-63
2022/10/10 06:17:14;;;;;;;4.15;2.42;;;18.50;47.00;;;;;;4904642;28;45523;-61
2022/10/10 06:19:39;;;;;;;10.50;3.35;;;18.40;46.90;;;;;;4922310;28;45203;-63
2022/10/10 06:22:05;;;;;;;7.65;3.15;;;18.30;47.00;;;;;;4900558;28;45415;-64
2022/10/10 06:24:30;;;;;;;7.38;2.92;;;18.20;47.10;;;;;;4901711;28;46139;-63
2022/10/10 06:26:56;;;;;;;13.35;3.00;;;18.10;47.10;;;;;;4909619;28;45399;-64
2022/10/10 06:29:21;;;;;;;9.88;3.15;;;18.10;47.10;;;;;;4919455;28;45858;-61
2022/10/10 06:31:47;;;;;;;6.78;2.90;;;18.00;47.20;;;;;;4898132;28;45137;-63
2022/10/10 06:34:12;;;;;;;4.57;2.45;;;17.90;47.30;;;;;;4901626;28;45890;-62
2022/10/10 06:36:38;;;;;;;9.60;2.70;;;17.90;47.40;;;;;;4925634;28;45321;-63
2022/10/10 06:39:04;;;;;;;8.75;2.15;;;17.90;47.40;;;;;;4918003;28;44939;-63
2022/10/10 06:41:29;;;;;;;7.28;2.55;;;18.00;47.90;;;;;;4917019;28;45029;-64
2022/10/10 06:43:55;;;;;;;7.53;2.70;;;18.10;47.80;;;;;;4921107;28;45132;-64
2022/10/10 06:46:20;;;;;;;5.05;2.08;;;18.30;47.50;;;;;;4903256;28;45361;-63
2022/10/10 06:48:46;;;;;;;9.55;2.70;;;18.60;47.30;;;;;;4899922;28;45654;-64
2022/10/10 06:51:15;;;;;;;6.05;2.00;;;18.80;47.00;;;;;;4899816;28;44940;-63
2022/10/10 06:53:41;;;;;;;7.10;2.10;;;19.00;46.70;;;;;;4902346;28;48109;-63
2022/10/10 06:56:08;;;;;;;4.82;2.10;;;19.20;46.50;;;;;;4922225;28;45213;-63
2022/10/10 06:58:34;;;;;;;4.13;2.03;;;19.40;46.30;;;;;;4907608;28;45633;-61
2022/10/10 07:01:01;;;;;;;5.80;1.92;;;19.60;46.20;;;;;;4916386;28;45306;-61
2022/10/10 07:03:27;;;;;;;4.13;1.95;;;19.80;46.00;;;;;;4914170;28;46039;-63
2022/10/10 07:05:54;;;;;;;8.00;2.10;;;19.90;45.90;;;;;;4898783;28;45458;-63
2022/10/10 07:08:20;;;;;;;5.40;2.15;;;20.10;45.80;;;;;;4901552;28;45065;-63
2022/10/10 07:10:46;;;;;;;8.50;2.23;;;20.30;45.70;;;;;;4918454;28;45509;-63
2022/10/10 07:13:12;;;;;;;5.38;2.20;;;20.50;45.50;;;;;;4915038;28;47054;-62
2022/10/10 07:15:37;;;;;;;5.60;2.35;;;20.70;45.30;;;;;;4914900;28;45454;-63
2022/10/10 07:18:03;;;;;;;4.10;1.90;;;21.00;45.10;;;;;;4919133;28;44745;-63
2022/10/10 07:20:28;;;;;;;6.90;2.00;;;21.10;44.80;;;;;;4921650;28;45676;-63
2022/10/10 07:22:54;;;;;;;3.87;2.10;;;21.30;44.60;;;;;;4920853;28;46122;-63
2022/10/10 07:25:19;;;;;;;5.47;2.00;;;21.50;44.30;;;;;;4912233;28;44902;-62
2022/10/10 07:27:45;;;;;;;3.60;2.07;;;21.70;44.10;;;;;;4901246;28;45352;-63
2022/10/10 07:30:11;;;;;;;2.83;1.90;;;21.90;43.90;;;;;;4915769;28;45440;-63
2022/10/10 07:32:36;;;;;;;7.72;1.80;;;22.00;43.60;;;;;;4914167;28;45596;-64
2022/10/10 07:35:02;;;;;;;3.22;1.77;;;22.20;43.40;;;;;;4923436;28;45580;-64
2022/10/10 07:37:27;;;;;;;4.60;2.10;;;22.40;43.20;;;;;;4913260;28;45212;-63
2022/10/10 07:39:53;;;;;;;3.10;1.70;;;22.50;43.00;;;;;;4913240;28;44950;-64
2022/10/10 07:42:18;;;;;;;3.58;1.90;;;22.70;42.80;;;;;;4914856;28;45997;-62
2022/10/10 07:44:44;;;;;;;2.90;1.60;;;22.80;42.60;;;;;;4916503;28;45244;-63
2022/10/10 07:47:09;;;;;;;4.40;1.95;;;23.00;42.40;;;;;;4918399;28;45653;-61
2022/10/10 07:49:35;;;;;;;3.50;1.80;;;23.10;42.30;;;;;;4914703;28;45528;-63
2022/10/10 07:52:00;;;;;;;3.88;1.70;;;23.20;42.10;;;;;;4916273;28;45511;-62
2022/10/10 07:54:26;;;;;;;2.80;1.77;;;23.30;42.00;;;;;;4916768;28;45131;-63
2022/10/10 07:56:52;;;;;;;3.00;1.70;;;23.40;41.80;;;;;;4920392;28;45326;-64
2022/10/10 07:59:17;;;;;;;3.90;1.67;;;23.50;41.70;;;;;;4916975;28;45456;-63
2022/10/10 08:01:43;;;;;;;3.30;1.60;;;23.50;41.50;;;;;;4916544;28;46037;-64
2022/10/10 08:04:08;;;;;;;4.57;1.60;;;23.40;42.20;;;;;;4918233;28;45491;-63
2022/10/10 08:06:34;;;;;;;4.70;1.60;;;23.30;42.50;;;;;;4919095;28;46219;-63
2022/10/10 08:08:59;;;;;;;2.33;1.30;;;23.30;42.60;;;;;;4917635;28;45543;-63
2022/10/10 08:11:26;;;;;;;3.80;1.20;;;23.30;42.70;;;;;;4916445;28;45253;-64
2022/10/10 08:13:51;;;;;;;3.13;1.60;;;23.40;42.60;;;;;;4915346;28;45545;-61
2022/10/10 08:16:17;;;;;;;3.80;1.60;;;23.60;42.10;;;;;;4916202;28;45413;-62
2022/10/10 08:18:43;;;;;;;3.83;1.77;;;23.80;41.80;;;;;;4917138;28;45765;-62
2022/10/10 08:21:10;;;;;;;2.30;1.60;;;23.90;41.50;;;;;;4919052;28;46167;-63
2022/10/10 08:23:36;;;;;;;3.37;1.50;;;24.10;41.30;;;;;;4884679;28;45326;-62
2022/10/10 08:26:05;;;;;;;2.60;1.30;;;24.20;41.20;;;;;;4916941;28;45696;-63
2022/10/10 08:28:31;;;;;;;3.07;1.50;;;24.30;41.10;;;;;;4914311;28;45392;-61
2022/10/10 08:30:57;;;;;;;2.58;1.40;;;24.40;41.50;;;;;;4895695;28;45966;-63
2022/10/10 08:33:26;;;;;;;2.78;1.60;;;24.50;40.80;;;;;;4914940;28;45581;-64
2022/10/10 08:35:52;;;;;;;3.10;1.60;;;24.60;40.70;;;;;;4919821;28;44843;-64
2022/10/10 08:38:17;;;;;;;2.97;1.67;;;24.70;40.50;;;;;;4911181;28;45476;-64
2022/10/10 08:40:48;;;;;;;2.20;1.30;;;24.80;40.50;;;;;;4916907;28;44947;-64
2022/10/10 08:43:29;;;;;;;2.30;1.50;;;24.80;40.40;;;;;;4883529;28;45408;-63
2022/10/10 08:45:54;;;;;;;2.17;1.27;;;24.90;40.30;;;;;;4901067;28;45452;-64
2022/10/10 08:48:22;;;;;;;2.57;1.20;;;25.00;40.10;;;;;;4879847;28;45408;-63
2022/10/10 08:50:58;;;;;;;3.15;1.50;;;25.00;40.00;;;;;;4881506;28;46058;-64
2022/10/10 08:53:33;;;;;;;3.20;1.40;;;25.10;40.00;;;;;;4898927;28;45646;-64
2022/10/10 08:55:59;;;;;;;2.37;1.30;;;25.20;39.90;;;;;;4881512;28;45432;-65
2022/10/10 08:58:33;;;;;;;3.40;1.40;;;25.30;39.80;;;;;;4897436;28;45650;-61
2022/10/10 09:01:22;;;;;;;4.35;1.50;;;25.30;39.70;;;;;;4895390;28;46199;-63
2022/10/10 09:03:55;;;;;;;2.58;1.45;;;25.40;39.70;;;;;;4883792;28;45544;-62
2022/10/10 09:06:39;;;;;;;2.63;1.30;;;25.40;39.60;;;;;;4896973;28;45448;-63
2022/10/10 09:09:47;;;;;;;3.15;1.60;;;25.50;39.50;;;;;;4912074;28;45516;-64
2022/10/10 09:12:33;;;;;;;2.30;1.30;;;25.50;39.50;;;;;;4884240;28;46391;-65
2022/10/10 09:15:34;;;;;;;1.88;1.30;;;25.60;39.50;;;;;;4896194;28;45142;-62
2022/10/10 09:18:10;;;;;;;2.50;1.23;;;25.60;39.40;;;;;;4911211;28;45364;-64
2022/10/10 09:20:42;;;;;;;2.07;1.27;;;25.70;39.40;;;;;;4898840;28;45482;-64
2022/10/10 09:23:18;;;;;;;2.83;1.23;;;25.70;39.40;;;;;;4895017;28;46117;-64
2022/10/10 09:26:01;;;;;;;2.03;1.30;;;25.70;39.30;;;;;;4918330;28;45412;-64
2022/10/10 09:28:50;;;;;;;3.50;1.48;;;25.80;39.30;;;;;;4896365;28;45785;-63
2022/10/10 09:31:23;;;;;;;1.95;1.25;;;25.80;39.30;;;;;;4891825;28;45489;-63
2022/10/10 09:34:02;;;;;;;2.42;1.30;;;25.80;39.20;;;;;;4912661;28;46238;-63
2022/10/10 09:36:34;;;;;;;3.97;1.45;;;25.90;39.30;;;;;;4900838;28;45633;-64
2022/10/10 09:39:19;;;;;;;3.05;1.30;;;25.90;39.20;;;;;;4901120;28;46070;-62
2022/10/10 09:41:53;;;;;;;4.28;1.48;;;25.90;39.20;;;;;;4906289;28;44672;-62
2022/10/10 09:44:19;;;;;;;2.80;1.30;;;26.00;39.20;;;;;;4887563;28;45229;-62
2022/10/10 09:46:45;;;;;;;3.07;1.40;;;26.00;39.20;;;;;;4902724;28;45175;-63
2022/10/10 09:49:13;;;;;;;2.90;1.30;;;26.10;39.10;;;;;;4900120;28;45119;-64
2022/10/10 09:51:38;;;;;;;2.97;1.17;;;26.10;39.10;;;;;;4918407;28;46775;-63
2022/10/10 09:54:04;;;;;;;2.50;1.50;;;26.10;39.10;;;;;;4884805;28;46874;-62
2022/10/10 09:56:55;;;;;;;1.63;1.13;;;26.10;39.00;;;;;;4902163;28;45189;-64
2022/10/10 09:59:46;;;;;;;1.88;1.25;;;26.20;39.10;;;;;;4898084;28;45504;-65
2022/10/10 10:02:17;;;;;;;2.15;1.20;;;26.20;39.00;;;;;;4918624;28;45520;-64
2022/10/10 10:04:43;;;;;;;2.80;1.35;;;26.20;39.00;;;;;;4884440;28;45793;-64
2022/10/10 10:07:27;;;;;;;2.38;1.30;;;26.20;38.90;;;;;;4902040;28;44658;-65
2022/10/10 10:10:00;;;;;;;2.57;1.30;;;26.30;38.90;;;;;;4899490;28;45163;-65
2022/10/10 10:12:40;;;;;;;2.10;1.35;;;26.30;38.90;;;;;;4901432;28;45474;-64
2022/10/10 10:15:27;;;;;;;2.33;1.20;;;26.30;38.90;;;;;;4877142;28;45588;-64
2022/10/10 10:18:19;;;;;;;2.95;1.42;;;26.30;38.80;;;;;;4900778;28;45441;-64
2022/10/10 10:20:53;;;;;;;2.13;1.10;;;26.40;38.80;;;;;;4893092;28;45532;-64
2022/10/10 10:23:26;;;;;;;1.70;1.15;;;26.40;38.80;;;;;;4881529;28;45557;-63
2022/10/10 10:26:05;;;;;;;2.03;1.02;;;26.40;38.80;;;;;;4902746;28;45028;-64
2022/10/10 10:28:38;;;;;;;2.03;1.00;;;26.40;38.80;;;;;;4915799;28;45524;-62
2022/10/10 10:31:04;;;;;;;2.20;1.10;;;26.40;38.80;;;;;;4897644;28;45372;-59
2022/10/10 10:33:47;;;;;;;2.72;1.17;;;26.40;38.80;;;;;;4883137;28;45486;-61
2022/10/10 10:36:21;;;;;;;2.10;1.13;;;26.50;38.90;;;;;;4911091;28;46216;-61
2022/10/10 10:38:57;;;;;;;2.22;1.20;;;26.50;38.90;;;;;;4879492;28;45293;-59
2022/10/10 10:41:26;;;;;;;2.08;1.00;;;26.50;38.90;;;;;;4889871;28;45592;-60
2022/10/10 10:44:21;;;;;;;2.15;1.13;;;26.50;38.90;;;;;;4897889;28;45361;-62
2022/10/10 10:47:13;;;;;;;2.10;1.20;;;26.50;38.90;;;;;;4880996;28;46133;-61
2022/10/10 10:49:57;;;;;;;2.17;1.10;;;26.60;39.00;;;;;;4894898;28;44846;-58
2022/10/10 10:52:59;;;;;;;1.27;1.08;;;26.60;39.00;;;;;;4913294;28;45570;-60
2022/10/10 10:55:36;;;;;;;1.35;1.10;;;26.60;39.00;;;;;;4848555;28;45361;-62
2022/10/10 10:58:23;;;;;;;2.10;1.23;;;26.60;39.00;;;;;;4897739;28;46035;-62
2022/10/10 11:00:58;;;;;;;1.77;1.10;;;26.70;39.00;;;;;;4918617;28;45981;-60
2022/10/10 11:03:31;;;;;;;1.87;1.00;;;26.70;39.00;;;;;;4900151;28;45347;-61
2022/10/10 11:06:19;;;;;;;1.73;1.10;;;26.70;39.00;;;;;;4901418;28;45173;-61
2022/10/10 11:08:56;;;;;;;2.75;1.30;;;26.70;39.00;;;;;;4895965;28;46352;-61
2022/10/10 11:11:52;;;;;;;1.57;1.00;;;26.70;39.00;;;;;;4882884;28;45212;-59
2022/10/10 11:14:50;;;;;;;1.67;1.10;;;26.80;39.10;;;;;;4896019;28;45434;-60
2022/10/10 11:17:20;;;;;;;1.23;1.05;;;26.80;39.10;;;;;;4899247;28;44830;-60
2022/10/10 11:19:55;;;;;;;1.60;1.13;;;26.80;39.00;;;;;;4896963;28;45385;-59
2022/10/10 11:22:27;;;;;;;1.30;0.97;;;26.90;39.10;;;;;;4913468;28;45186;-57
2022/10/10 11:25:22;;;;;;;2.23;1.10;;;26.90;39.00;;;;;;4881620;28;45138;-60
2022/10/10 11:27:50;;;;;;;3.60;1.10;;;26.90;39.00;;;;;;4909724;28;45593;-59
2022/10/10 11:30:23;;;;;;;1.70;1.07;;;26.90;39.00;;;;;;4899617;28;46056;-60
2022/10/10 11:32:55;;;;;;;1.70;0.95;;;27.00;39.70;;;;;;4894258;28;45191;-60
2022/10/10 11:35:39;;;;;;;1.40;0.80;;;27.00;39.10;;;;;;4900157;28;46562;-60
2022/10/10 11:38:24;;;;;;;1.73;0.88;;;26.70;39.70;;;;;;4913831;28;45293;-61
2022/10/10 11:41:02;;;;;;;1.25;0.93;;;26.50;39.90;;;;;;4887321;28;45983;-59
2022/10/10 11:43:30;;;;;;;1.35;0.80;;;26.40;40.10;;;;;;4902672;28;45186;-62
2022/10/10 11:46:00;;;;;;;1.83;0.90;;;26.40;40.30;;;;;;4904697;28;44768;-63
2022/10/10 11:48:38;;;;;;;1.40;0.93;;;26.40;40.30;;;;;;4903420;28;45587;-60
2022/10/10 11:51:10;;;;;;;1.48;0.70;;;26.40;40.30;;;;;;4872285;28;47041;-61
2022/10/10 11:53:39;;;;;;;1.20;0.60;;;26.40;40.40;;;;;;4911070;28;45294;-59
2022/10/10 11:56:29;;;;;;;3.50;0.90;;;26.40;40.40;;;;;;4899171;28;45563;-60
2022/10/10 11:59:01;;;;;;;2.00;1.02;;;26.40;40.50;;;;;;4921106;28;45273;-60
2022/10/10 12:01:28;;;;;;;1.52;0.70;;;26.40;40.50;;;;;;4895598;28;45566;-57
2022/10/10 12:03:56;;;;;;;0.93;0.80;;;26.40;40.50;;;;;;4921269;28;45337;-62
2022/10/10 12:06:31;;;;;;;2.17;0.40;;;26.40;40.50;;;;;;4902120;28;45463;-58
2022/10/10 12:09:07;;;;;;;0.90;0.80;;;26.30;40.70;;;;;;4923039;28;44942;-61
2022/10/10 12:11:40;;;;;;;1.48;0.90;;;26.30;40.90;;;;;;4901125;28;45987;-59
2022/10/10 12:14:07;;;;;;;2.00;0.98;;;26.20;41.00;;;;;;4896411;28;45052;-60
2022/10/10 12:16:34;;;;;;;1.38;0.75;;;26.10;41.10;;;;;;4902605;28;45547;-62
2022/10/10 12:19:12;;;;;;;0.98;0.82;;;26.10;41.20;;;;;;4904825;28;45318;-60
2022/10/10 12:21:53;;;;;;;1.48;0.70;;;26.00;41.30;;;;;;4885370;28;46188;-61
2022/10/10 12:24:18;;;;;;;1.70;0.90;;;26.00;41.40;;;;;;4899968;28;45305;-61
2022/10/10 12:26:56;;;;;;;1.50;0.73;;;25.90;41.40;;;;;;4899779;28;45589;-61
2022/10/10 12:29:40;;;;;;;1.50;1.00;;;25.80;41.60;;;;;;4925596;28;44755;-61
2022/10/10 12:32:12;;;;;;;1.52;0.80;;;25.80;41.80;;;;;;4917854;28;46417;-62
2022/10/10 12:34:47;;;;;;;2.10;0.80;;;25.70;41.80;;;;;;4899310;28;45150;-61
2022/10/10 12:37:21;;;;;;;1.00;0.82;;;25.60;41.90;;;;;;4917988;28;45530;-61
2022/10/10 12:40:04;;;;;;;1.42;0.63;;;25.60;42.00;;;;;;4901795;28;45510;-60
2022/10/10 12:42:37;;;;;;;2.42;0.77;;;25.50;42.20;;;;;;4913911;28;46080;-62
2022/10/10 12:45:22;;;;;;;0.77;0.75;;;25.50;42.20;;;;;;4902437;28;44632;-59
2022/10/10 12:47:47;;;;;;;1.40;0.80;;;25.40;42.20;;;;;;4905161;28;45422;-60
2022/10/10 12:50:35;;;;;;;1.15;0.70;;;25.40;42.30;;;;;;4899990;28;44894;-60
2022/10/10 12:53:05;;;;;;;1.48;0.80;;;25.40;42.50;;;;;;4900494;28;47048;-64
2022/10/10 12:55:38;;;;;;;1.48;0.80;;;25.30;42.50;;;;;;4919641;28;45307;-62
2022/10/10 12:58:08;;;;;;;1.42;0.80;;;25.30;42.50;;;;;;4903953;28;45393;-59
2022/10/10 13:00:38;;;;;;;1.10;0.77;;;25.20;42.60;;;;;;4919146;28;45404;-59
2022/10/10 13:03:08;;;;;;;1.02;0.75;;;25.20;42.60;;;;;;4924248;28;45194;-59
2022/10/10 13:05:35;;;;;;;1.48;1.10;;;25.10;42.70;;;;;;4904051;28;45205;-60
2022/10/10 13:08:03;;;;;;;1.48;1.00;;;25.10;42.80;;;;;;4902233;28;45591;-60
2022/10/10 13:10:29;;;;;;;1.13;0.70;;;25.10;42.80;;;;;;4893193;28;44981;-61
2022/10/10 13:13:17;;;;;;;1.30;0.90;;;25.00;42.80;;;;;;4921343;28;45609;-62
2022/10/10 13:15:54;;;;;;;1.05;0.70;;;25.00;43.00;;;;;;4924538;28;44687;-59
2022/10/10 13:18:37;;;;;;;1.65;0.90;;;25.00;43.20;;;;;;4906822;28;45310;-62
2022/10/10 13:21:03;;;;;;;1.10;0.80;;;24.90;43.20;;;;;;4925144;28;45066;-62
2022/10/10 13:23:29;;;;;;;1.48;0.60;;;24.90;43.20;;;;;;4907392;28;46392;-58
2022/10/10 13:25:54;;;;;;;1.00;0.80;;;24.80;43.20;;;;;;4893373;28;44749;-61
2022/10/10 13:28:20;;;;;;;1.27;0.93;;;24.80;43.20;;;;;;4893417;28;44815;-58
2022/10/10 13:30:47;;;;;;;1.45;1.00;;;24.80;43.30;;;;;;4907514;28;45468;-58
2022/10/10 13:33:18;;;;;;;0.95;0.70;;;24.80;43.40;;;;;;4890429;28;46955;-61
2022/10/10 13:35:44;;;;;;;0.98;0.82;;;24.70;43.40;;;;;;4904061;28;45299;-60
2022/10/10 13:38:10;;;;;;;0.68;0.60;;;24.70;43.40;;;;;;4902801;28;45178;-62
2022/10/10 13:40:36;;;;;;;3.35;0.90;;;24.70;43.50;;;;;;4893643;28;45380;-62
2022/10/10 13:43:01;;;;;;;1.17;0.68;;;24.70;43.50;;;;;;4922559;28;46471;-59
2022/10/10 13:45:36;;;;;;;1.30;0.90;;;24.60;43.60;;;;;;4926668;28;45495;-61
2022/10/10 13:48:01;;;;;;;2.25;1.00;;;24.60;43.70;;;;;;4900470;28;45217;-61
2022/10/10 13:50:28;;;;;;;0.80;0.75;;;24.60;43.60;;;;;;4915689;28;45489;-61
2022/10/10 13:53:27;;;;;;;1.13;0.82;;;24.50;43.70;;;;;;4922542;28;46087;-61
2022/10/10 13:56:20;;;;;;;1.02;0.82;;;24.50;44.00;;;;;;4922894;28;45641;-59
2022/10/10 13:59:10;;;;;;;1.70;1.00;;;24.50;44.00;;;;;;4896216;28;45468;-57
2022/10/10 14:01:40;;;;;;;2.05;0.70;;;24.40;43.90;;;;;;4908047;28;44813;-61
2022/10/10 14:04:12;;;;;;;1.05;0.60;;;24.50;44.00;;;;;;4904112;28;45246;-61
2022/10/10 14:06:46;;;;;;;1.48;0.77;;;24.40;44.10;;;;;;4917960;28;44905;-59
2022/10/10 14:09:21;;;;;;;2.10;0.93;;;24.40;44.00;;;;;;4898180;28;45236;-59
2022/10/10 14:11:47;;;;;;;0.82;0.70;;;24.40;44.10;;;;;;4902473;28;45158;-60
2022/10/10 14:14:23;;;;;;;1.65;0.90;;;24.40;44.10;;;;;;4919623;28;46141;-59
2022/10/10 14:17:01;;;;;;;1.85;0.90;;;24.40;44.20;;;;;;4904005;28;45445;-58
2022/10/10 14:19:27;;;;;;;1.58;0.90;;;24.40;44.20;;;;;;4918629;28;45384;-61
2022/10/10 14:21:53;;;;;;;1.35;0.85;;;24.40;44.10;;;;;;4914963;28;45192;-62
2022/10/10 14:24:18;;;;;;;2.28;0.88;;;24.30;44.20;;;;;;4915522;28;45927;-62
2022/10/10 14:26:44;;;;;;;1.70;0.90;;;24.30;44.20;;;;;;4911345;28;44957;-61
2022/10/10 14:29:13;;;;;;;1.75;0.90;;;24.30;44.30;;;;;;4898900;28;45524;-61
2022/10/10 14:31:39;;;;;;;1.38;0.90;;;24.30;44.30;;;;;;4899312;28;44747;-60
2022/10/10 14:34:05;;;;;;;1.35;1.05;;;24.30;44.30;;;;;;4914124;28;45940;-59
2022/10/10 14:36:31;;;;;;;1.38;0.80;;;24.20;44.30;;;;;;4914477;28;45260;-61
2022/10/10 14:38:56;;;;;;;0.93;0.80;;;24.20;44.40;;;;;;4911797;28;46168;-63
2022/10/10 14:41:22;;;;;;;1.45;0.93;;;24.20;44.40;;;;;;4912866;28;46594;-62
2022/10/10 14:43:47;;;;;;;2.20;0.82;;;24.20;44.40;;;;;;4913498;28;45332;-62
2022/10/10 14:46:16;;;;;;;2.30;1.00;;;24.20;44.50;;;;;;4915614;28;45198;-62
2022/10/10 14:48:42;;;;;;;1.40;0.75;;;24.20;44.50;;;;;;4900051;28;44731;-58
2022/10/10 14:51:09;;;;;;;1.92;0.90;;;24.10;44.60;;;;;;4893062;28;45247;-61
2022/10/10 14:53:35;;;;;;;0.88;0.77;;;24.10;44.60;;;;;;4912466;28;44963;-62
2022/10/10 14:56:01;;;;;;;1.50;0.93;;;24.10;44.60;;;;;;4915152;28;45090;-62
2022/10/10 14:58:26;;;;;;;1.35;1.00;;;24.10;44.70;;;;;;4909024;28;45429;-63
2022/10/10 15:00:52;;;;;;;1.88;1.00;;;24.10;44.70;;;;;;4899473;28;45578;-63
2022/10/10 15:03:17;;;;;;;1.15;0.80;;;24.10;44.80;;;;;;4909880;28;45142;-62
2022/10/10 15:05:43;;;;;;;1.58;0.82;;;24.00;44.70;;;;;;4893953;28;45185;-60
2022/10/10 15:08:13;;;;;;;1.67;0.73;;;24.00;44.80;;;;;;4912291;28;45299;-61
2022/10/10 15:10:39;;;;;;;1.23;0.90;;;24.00;44.80;;;;;;4892127;28;45652;-60
2022/10/10 15:13:04;;;;;;;3.13;1.08;;;24.00;44.80;;;;;;4917680;28;46632;-61
2022/10/10 15:15:30;;;;;;;1.33;0.90;;;24.00;44.80;;;;;;4913156;28;45310;-63
2022/10/10 15:17:57;;;;;;;1.75;0.90;;;24.00;44.90;;;;;;4912429;28;45123;-62
2022/10/10 15:20:29;;;;;;;1.58;0.77;;;24.00;45.00;;;;;;4901376;28;45965;-63
2022/10/10 15:22:55;;;;;;;1.20;0.77;;;23.90;44.90;;;;;;4914275;28;45055;-62
2022/10/10 15:25:21;;;;;;;1.70;1.10;;;23.90;45.00;;;;;;4916034;28;45948;-62
2022/10/10 15:27:47;;;;;;;1.52;1.00;;;23.90;45.00;;;;;;4913474;28;45045;-62
2022/10/10 15:30:12;;;;;;;1.02;0.73;;;23.90;45.00;;;;;;4903238;28;45453;-62
2022/10/10 15:32:41;;;;;;;1.15;0.90;;;23.90;45.10;;;;;;4908621;28;46899;-63
2022/10/10 15:35:11;;;;;;;1.50;0.73;;;23.90;45.10;;;;;;4913938;28;45574;-63
2022/10/10 15:37:36;;;;;;;1.17;0.68;;;23.80;45.10;;;;;;4896677;28;45746;-66
2022/10/10 15:40:02;;;;;;;2.63;0.80;;;23.80;45.10;;;;;;4885374;28;45533;-63
2022/10/10 15:42:28;;;;;;;1.23;0.88;;;23.80;45.20;;;;;;4912385;28;45347;-63
2022/10/10 15:44:54;;;;;;;1.25;0.93;;;23.80;45.20;;;;;;4909834;28;44722;-64
2022/10/10 15:47:19;;;;;;;1.15;0.88;;;23.80;45.30;;;;;;4910778;28;45523;-63
2022/10/10 15:49:45;;;;;;;3.35;0.80;;;23.80;45.50;;;;;;4908636;28;47546;-60
2022/10/10 15:52:11;;;;;;;1.35;0.80;;;23.70;45.50;;;;;;4906543;28;46189;-64
2022/10/10 15:54:36;;;;;;;0.95;0.60;;;23.70;45.50;;;;;;4909079;28;45306;-65
2022/10/10 15:57:02;;;;;;;2.38;0.90;;;23.70;45.50;;;;;;4912875;28;45065;-64
2022/10/10 15:59:28;;;;;;;1.98;1.08;;;23.60;45.50;;;;;;4899558;28;45381;-64
2022/10/10 16:01:54;;;;;;;1.42;0.90;;;23.60;45.50;;;;;;4879073;28;45491;-63